sensor_id;sensor_type;location;lat;lon;timestamp;pressure;altitude;pressure_sealevel;temperature;humidity
5595;BME280;1003;48.002;7.788;2024-02-04T00:00:11;99984.28;;;6.24;100.00
5595;BME280;1003;48.002;7.788;2024-02-04T00:02:39;99988.41;;;6.22;100.00
5595;BME280;1003;48.002;7.788;2024-02-04T00:05:06;99983.44;;;6.22;100.00
5595;BME280;1003;48.002;7.788;2024-02-04T00:07:33;99980.09;;;6.21;100.00
5595;BME280;1003;48.002;7.788;2024-02-04T00:10:00;99970.09;;;6.20;100.00
5595;BME280;1003;48.002;7.788;2024-02-04T00:12:27;99952.63;;;6.21;100.00
5595;BME280;1003;48.002;7.788;2024-02-04T00:14:55;99940.19;;;6.23;100.00
5595;BME280;1003;48.002;7.788;2024-02-04T00:17:22;99931.09;;;6.26;100.00
5595;BME280;1003;48.002;7.788;2024-02-04T00:19:49;99922.78;;;6.27;100.00
5595;BME280;1003;48.002;7.788;2024-02-04T00:22:15;99917.16;;;6.36;100.00
5595;BME280;1003;48.002;7.788;2024-02-04T00:24:45;99920.47;;;6.37;100.00
5595;BME280;1003;48.002;7.788;2024-02-04T00:27:12;99914.75;;;6.41;100.00
5595;BME280;1003;48.002;7.788;2024-02-04T00:29:39;99914.78;;;6.45;100.00
5595;BME280;1003;48.002;7.788;2024-02-04T00:32:07;99918.09;;;6.43;100.00
5595;BME280;1003;48.002;7.788;2024-02-04T00:34:34;99917.38;;;6.48;100.00
5595;BME280;1003;48.002;7.788;2024-02-04T00:37:01;99918.84;;;6.39;100.00
5595;BME280;1003;48.002;7.788;2024-02-04T00:39:28;99918.00;;;6.38;100.00
5595;BME280;1003;48.002;7.788;2024-02-04T00:41:55;99910.50;;;6.38;100.00
5595;BME280;1003;48.002;7.788;2024-02-04T00:44:22;99920.47;;;6.35;100.00
5595;BME280;1003;48.002;7.788;2024-02-04T00:46:49;99917.97;;;6.35;100.00
5595;BME280;1003;48.002;7.788;2024-02-04T00:49:17;99906.31;;;6.36;100.00
5595;BME280;1003;48.002;7.788;2024-02-04T00:51:44;99907.16;;;6.36;100.00
5595;BME280;1003;48.002;7.788;2024-02-04T00:54:11;99907.91;;;6.32;100.00
5595;BME280;1003;48.002;7.788;2024-02-04T00:56:38;99903.78;;;6.34;100.00
5595;BME280;1003;48.002;7.788;2024-02-04T00:59:05;99910.47;;;6.35;100.00
5595;BME280;1003;48.002;7.788;2024-02-04T01:01:32;99912.25;;;6.41;100.00
5595;BME280;1003;48.002;7.788;2024-02-04T01:03:59;99922.13;;;6.36;100.00
5595;BME280;1003;48.002;7.788;2024-02-04T01:06:28;99914.66;;;6.36;100.00
5595;BME280;1003;48.002;7.788;2024-02-04T01:08:55;99885.53;;;6.37;100.00
5595;BME280;1003;48.002;7.788;2024-02-04T01:11:23;99882.28;;;6.41;100.00
5595;BME280;1003;48.002;7.788;2024-02-04T01:13:50;99883.91;;;6.40;100.00
5595;BME280;1003;48.002;7.788;2024-02-04T01:16:17;99879.72;;;6.39;100.00
5595;BME280;1003;48.002;7.788;2024-02-04T01:18:43;99893.84;;;6.36;100.00
5595;BME280;1003;48.002;7.788;2024-02-04T01:21:10;99888.78;;;6.32;100.00
5595;BME280;1003;48.002;7.788;2024-02-04T01:23:39;99876.28;;;6.31;100.00
5595;BME280;1003;48.002;7.788;2024-02-04T01:26:06;99882.09;;;6.30;100.00
5595;BME280;1003;48.002;7.788;2024-02-04T01:28:32;99886.22;;;6.29;100.00
5595;BME280;1003;48.002;7.788;2024-02-04T01:30:59;99885.44;;;6.32;100.00
5595;BME280;1003;48.002;7.788;2024-02-04T01:33:26;99877.94;;;6.30;100.00
5595;BME280;1003;48.002;7.788;2024-02-04T01:35:54;99887.03;;;6.28;100.00
5595;BME280;1003;48.002;7.788;2024-02-04T01:38:21;99891.19;;;6.28;100.00
5595;BME280;1003;48.002;7.788;2024-02-04T01:40:49;99895.41;;;6.30;100.00
5595;BME280;1003;48.002;7.788;2024-02-04T01:43:18;99896.25;;;6.31;100.00
5595;BME280;1003;48.002;7.788;2024-02-04T01:45:47;99907.97;;;6.35;100.00
5595;BME280;1003;48.002;7.788;2024-02-04T01:48:14;99918.03;;;6.40;100.00
5595;BME280;1003;48.002;7.788;2024-02-04T01:50:41;99913.81;;;6.36;100.00
5595;BME280;1003;48.002;7.788;2024-02-04T01:53:09;99906.25;;;6.32;100.00
5595;BME280;1003;48.002;7.788;2024-02-04T01:55:39;99892.94;;;6.34;100.00
5595;BME280;1003;48.002;7.788;2024-02-04T01:58:07;99896.28;;;6.34;100.00
5595;BME280;1003;48.002;7.788;2024-02-04T02:00:34;99901.31;;;6.36;100.00
5595;BME280;1003;48.002;7.788;2024-02-04T02:03:05;99909.53;;;6.30;100.00
5595;BME280;1003;48.002;7.788;2024-02-04T02:05:32;99903.63;;;6.25;100.00
5595;BME280;1003;48.002;7.788;2024-02-04T02:07:59;99904.47;;;6.27;100.00
5595;BME280;1003;48.002;7.788;2024-02-04T02:10:26;99910.22;;;6.23;100.00
5595;BME280;1003;48.002;7.788;2024-02-04T02:13:00;99913.53;;;6.22;100.00
5595;BME280;1003;48.002;7.788;2024-02-04T02:15:38;99916.16;;;6.28;100.00
5595;BME280;1003;48.002;7.788;2024-02-04T02:18:15;99910.28;;;6.24;100.00
5595;BME280;1003;48.002;7.788;2024-02-04T02:21:05;99901.66;;;6.09;100.00
5595;BME280;1003;48.002;7.788;2024-02-04T02:24:03;99894.00;;;6.02;100.00
5595;BME280;1003;48.002;7.788;2024-02-04T02:26:32;99884.72;;;5.95;100.00
5595;BME280;1003;48.002;7.788;2024-02-04T02:29:03;99882.00;;;5.86;100.00
5595;BME280;1003;48.002;7.788;2024-02-04T02:31:30;99881.00;;;5.76;100.00
5595;BME280;1003;48.002;7.788;2024-02-04T02:33:58;99871.75;;;5.71;100.00
5595;BME280;1003;48.002;7.788;2024-02-04T02:36:34;99874.16;;;5.66;100.00
5595;BME280;1003;48.002;7.788;2024-02-04T02:39:12;99874.97;;;5.67;100.00
5595;BME280;1003;48.002;7.788;2024-02-04T02:41:44;99883.91;;;5.57;100.00
5595;BME280;1003;48.002;7.788;2024-02-04T02:44:14;99883.84;;;5.54;100.00
5595;BME280;1003;48.002;7.788;2024-02-04T02:46:42;99885.25;;;5.43;100.00
5595;BME280;1003;48.002;7.788;2024-02-04T02:49:11;99877.03;;;5.45;100.00
5595;BME280;1003;48.002;7.788;2024-02-04T02:51:37;99869.47;;;5.42;100.00
5595;BME280;1003;48.002;7.788;2024-02-04T02:54:04;99874.28;;;5.33;100.00
5595;BME280;1003;48.002;7.788;2024-02-04T02:56:31;99869.22;;;5.30;100.00
5595;BME280;1003;48.002;7.788;2024-02-04T02:58:59;99867.44;;;5.26;100.00
5595;BME280;1003;48.002;7.788;2024-02-04T03:01:26;99864.09;;;5.24;100.00
5595;BME280;1003;48.002;7.788;2024-02-04T03:03:53;99856.47;;;5.18;100.00
5595;BME280;1003;48.002;7.788;2024-02-04T03:06:20;99859.72;;;5.15;100.00
5595;BME280;1003;48.002;7.788;2024-02-04T03:08:47;99860.53;;;5.14;100.00
5595;BME280;1003;48.002;7.788;2024-02-04T03:11:14;99853.91;;;5.15;100.00
5595;BME280;1003;48.002;7.788;2024-02-04T03:13:41;99843.94;;;5.15;100.00
5595;BME280;1003;48.002;7.788;2024-02-04T03:16:11;99840.50;;;5.10;100.00
5595;BME280;1003;48.002;7.788;2024-02-04T03:18:40;99837.88;;;5.04;100.00
5595;BME280;1003;48.002;7.788;2024-02-04T03:21:12;99838.59;;;4.99;100.00
5595;BME280;1003;48.002;7.788;2024-02-04T03:23:41;99833.38;;;4.89;100.00
5595;BME280;1003;48.002;7.788;2024-02-04T03:26:09;99820.97;;;4.90;100.00
5595;BME280;1003;48.002;7.788;2024-02-04T03:28:36;99820.09;;;4.88;100.00
5595;BME280;1003;48.002;7.788;2024-02-04T03:31:03;99811.06;;;4.93;100.00
5595;BME280;1003;48.002;7.788;2024-02-04T03:33:31;99805.25;;;4.93;100.00
5595;BME280;1003;48.002;7.788;2024-02-04T03:35:58;99808.94;;;5.09;100.00
5595;BME280;1003;48.002;7.788;2024-02-04T03:38:25;99810.69;;;5.13;100.00
5595;BME280;1003;48.002;7.788;2024-02-04T03:40:52;99798.34;;;5.17;100.00
5595;BME280;1003;48.002;7.788;2024-02-04T03:43:19;99801.72;;;5.21;100.00
5595;BME280;1003;48.002;7.788;2024-02-04T03:45:46;99790.19;;;5.26;100.00
5595;BME280;1003;48.002;7.788;2024-02-04T03:48:13;99778.66;;;5.30;100.00
5595;BME280;1003;48.002;7.788;2024-02-04T03:50:42;99768.03;;;5.38;100.00
5595;BME280;1003;48.002;7.788;2024-02-04T03:53:09;99762.38;;;5.47;100.00
5595;BME280;1003;48.002;7.788;2024-02-04T03:55:36;99760.78;;;5.50;100.00
5595;BME280;1003;48.002;7.788;2024-02-04T03:58:03;99741.78;;;5.56;100.00
5595;BME280;1003;48.002;7.788;2024-02-04T04:00:30;99734.38;;;5.60;100.00
5595;BME280;1003;48.002;7.788;2024-02-04T04:02:57;99729.53;;;5.68;100.00
5595;BME280;1003;48.002;7.788;2024-02-04T04:05:24;99724.63;;;5.72;100.00
5595;BME280;1003;48.002;7.788;2024-02-04T04:07:53;99718.88;;;5.76;100.00
5595;BME280;1003;48.002;7.788;2024-02-04T04:10:20;99712.34;;;5.83;100.00
5595;BME280;1003;48.002;7.788;2024-02-04T04:12:47;99702.38;;;5.83;100.00
5595;BME280;1003;48.002;7.788;2024-02-04T04:15:14;99695.09;;;5.94;100.00
5595;BME280;1003;48.002;7.788;2024-02-04T04:17:41;99693.38;;;5.91;100.00
5595;BME280;1003;48.002;7.788;2024-02-04T04:20:08;99689.22;;;5.92;100.00
5595;BME280;1003;48.002;7.788;2024-02-04T04:22:35;99680.91;;;5.91;100.00
5595;BME280;1003;48.002;7.788;2024-02-04T04:25:07;99699.22;;;5.92;100.00
5595;BME280;1003;48.002;7.788;2024-02-04T04:27:34;99691.81;;;5.96;100.00
5595;BME280;1003;48.002;7.788;2024-02-04T04:30:01;99690.13;;;5.94;100.00
5595;BME280;1003;48.002;7.788;2024-02-04T04:32:28;99689.28;;;5.93;100.00
5595;BME280;1003;48.002;7.788;2024-02-04T04:34:55;99700.66;;;5.80;100.00
5595;BME280;1003;48.002;7.788;2024-02-04T04:37:22;99702.22;;;5.75;100.00
5595;BME280;1003;48.002;7.788;2024-02-04T04:39:49;99708.13;;;5.80;100.00
5595;BME280;1003;48.002;7.788;2024-02-04T04:42:17;99720.47;;;5.73;100.00
5595;BME280;1003;48.002;7.788;2024-02-04T04:44:44;99714.59;;;5.69;100.00
5595;BME280;1003;48.002;7.788;2024-02-04T04:47:11;99706.97;;;5.62;100.00
5595;BME280;1003;48.002;7.788;2024-02-04T04:49:38;99719.34;;;5.57;100.00
5595;BME280;1003;48.002;7.788;2024-02-04T04:52:05;99718.50;;;5.55;100.00
5595;BME280;1003;48.002;7.788;2024-02-04T04:54:32;99728.22;;;5.43;100.00
5595;BME280;1003;48.002;7.788;2024-02-04T04:56:59;99733.94;;;5.37;100.00
5595;BME280;1003;48.002;7.788;2024-02-04T04:59:27;99726.63;;;5.46;100.00
5595;BME280;1003;48.002;7.788;2024-02-04T05:01:54;99726.56;;;5.43;100.00
5595;BME280;1003;48.002;7.788;2024-02-04T05:04:21;99718.22;;;5.41;100.00
5595;BME280;1003;48.002;7.788;2024-02-04T05:06:50;99728.06;;;5.35;100.00
5595;BME280;1003;48.002;7.788;2024-02-04T05:09:17;99737.84;;;5.24;100.00
5595;BME280;1003;48.002;7.788;2024-02-04T05:11:44;99727.88;;;5.26;100.00
5595;BME280;1003;48.002;7.788;2024-02-04T05:14:11;99731.09;;;5.20;100.00
5595;BME280;1003;48.002;7.788;2024-02-04T05:16:39;99731.06;;;5.17;100.00
5595;BME280;1003;48.002;7.788;2024-02-04T05:19:09;99720.19;;;5.14;100.00
5595;BME280;1003;48.002;7.788;2024-02-04T05:21:38;99712.63;;;5.11;100.00
5595;BME280;1003;48.002;7.788;2024-02-04T05:24:06;99698.34;;;5.02;100.00
5595;BME280;1003;48.002;7.788;2024-02-04T05:26:33;99698.19;;;4.94;100.00
5595;BME280;1003;48.002;7.788;2024-02-04T05:29:00;99693.97;;;4.92;100.00
5595;BME280;1003;48.002;7.788;2024-02-04T05:31:27;99694.63;;;4.83;100.00
5595;BME280;1003;48.002;7.788;2024-02-04T05:33:56;99686.22;;;4.78;100.00
5595;BME280;1003;48.002;7.788;2024-02-04T05:36:23;99683.78;;;4.80;100.00
5595;BME280;1003;48.002;7.788;2024-02-04T05:38:50;99689.41;;;4.72;100.00
5595;BME280;1003;48.002;7.788;2024-02-04T05:41:17;99678.50;;;4.67;100.00
5595;BME280;1003;48.002;7.788;2024-02-04T05:43:44;99671.19;;;4.73;100.00
5595;BME280;1003;48.002;7.788;2024-02-04T05:46:13;99676.94;;;4.71;100.00
5595;BME280;1003;48.002;7.788;2024-02-04T05:48:40;99671.75;;;4.62;100.00
5595;BME280;1003;48.002;7.788;2024-02-04T05:51:11;99668.28;;;4.54;100.00
5595;BME280;1003;48.002;7.788;2024-02-04T05:53:38;99674.38;;;4.68;100.00
5595;BME280;1003;48.002;7.788;2024-02-04T05:56:05;99675.28;;;4.71;100.00
5595;BME280;1003;48.002;7.788;2024-02-04T05:58:32;99676.00;;;4.66;100.00
5595;BME280;1003;48.002;7.788;2024-02-04T06:00:59;99677.66;;;4.65;100.00
5595;BME280;1003;48.002;7.788;2024-02-04T06:03:26;99667.47;;;4.55;100.00
5595;BME280;1003;48.002;7.788;2024-02-04T06:05:53;99677.19;;;4.44;100.00
5595;BME280;1003;48.002;7.788;2024-02-04T06:08:21;99680.59;;;4.47;100.00
5595;BME280;1003;48.002;7.788;2024-02-04T06:10:48;99674.72;;;4.45;100.00
5595;BME280;1003;48.002;7.788;2024-02-04T06:13:15;99666.38;;;4.43;100.00
5595;BME280;1003;48.002;7.788;2024-02-04T06:15:42;99671.50;;;4.50;100.00
5595;BME280;1003;48.002;7.788;2024-02-04T06:18:09;99678.97;;;4.51;100.00
5595;BME280;1003;48.002;7.788;2024-02-04T06:20:36;99684.84;;;4.53;100.00
5595;BME280;1003;48.002;7.788;2024-02-04T06:23:03;99697.19;;;4.48;100.00
5595;BME280;1003;48.002;7.788;2024-02-04T06:25:31;99690.53;;;4.47;100.00
5595;BME280;1003;48.002;7.788;2024-02-04T06:27:58;99690.56;;;4.49;100.00
5595;BME280;1003;48.002;7.788;2024-02-04T06:30:25;99684.72;;;4.47;100.00
5595;BME280;1003;48.002;7.788;2024-02-04T06:32:52;99682.28;;;4.50;100.00
5595;BME280;1003;48.002;7.788;2024-02-04T06:35:19;99696.25;;;4.43;100.00
5595;BME280;1003;48.002;7.788;2024-02-04T06:37:46;99697.22;;;4.50;100.00
5595;BME280;1003;48.002;7.788;2024-02-04T06:40:12;99695.53;;;4.47;100.00
5595;BME280;1003;48.002;7.788;2024-02-04T06:42:41;99691.38;;;4.48;100.00
5595;BME280;1003;48.002;7.788;2024-02-04T06:45:09;99692.13;;;4.45;100.00
5595;BME280;1003;48.002;7.788;2024-02-04T06:47:36;99697.19;;;4.48;100.00
5595;BME280;1003;48.002;7.788;2024-02-04T06:50:05;99693.06;;;4.49;100.00
5595;BME280;1003;48.002;7.788;2024-02-04T06:52:34;99694.72;;;4.50;100.00
5595;BME280;1003;48.002;7.788;2024-02-04T06:55:01;99688.19;;;4.54;100.00
5595;BME280;1003;48.002;7.788;2024-02-04T06:57:28;99687.38;;;4.55;100.00
5595;BME280;1003;48.002;7.788;2024-02-04T06:59:56;99689.19;;;4.62;100.00
5595;BME280;1003;48.002;7.788;2024-02-04T07:02:23;99684.41;;;4.71;100.00
5595;BME280;1003;48.002;7.788;2024-02-04T07:04:52;99675.47;;;4.79;100.00
5595;BME280;1003;48.002;7.788;2024-02-04T07:07:19;99665.63;;;4.85;100.00
5595;BME280;1003;48.002;7.788;2024-02-04T07:09:46;99659.03;;;4.89;100.00
5595;BME280;1003;48.002;7.788;2024-02-04T07:12:13;99657.53;;;4.95;100.00
5595;BME280;1003;48.002;7.788;2024-02-04T07:14:40;99646.88;;;5.03;100.00
5595;BME280;1003;48.002;7.788;2024-02-04T07:17:08;99652.78;;;5.08;100.00
5595;BME280;1003;48.002;7.788;2024-02-04T07:19:37;99633.78;;;5.13;100.00
5595;BME280;1003;48.002;7.788;2024-02-04T07:22:04;99642.97;;;5.15;100.00
5595;BME280;1003;48.002;7.788;2024-02-04T07:24:31;99634.72;;;5.19;100.00
5595;BME280;1003;48.002;7.788;2024-02-04T07:26:58;99638.25;;;5.29;100.00
5595;BME280;1003;48.002;7.788;2024-02-04T07:29:25;99630.78;;;5.31;100.00
5595;BME280;1003;48.002;7.788;2024-02-04T07:31:52;99639.13;;;5.33;100.00
5595;BME280;1003;48.002;7.788;2024-02-04T07:34:20;99637.59;;;5.39;100.00
5595;BME280;1003;48.002;7.788;2024-02-04T07:36:47;99631.91;;;5.48;100.00
5595;BME280;1003;48.002;7.788;2024-02-04T07:39:14;99634.53;;;5.54;100.00
5595;BME280;1003;48.002;7.788;2024-02-04T07:41:41;99647.16;;;5.65;100.00
5595;BME280;1003;48.002;7.788;2024-02-04T07:44:07;99649.78;;;5.71;100.00
5595;BME280;1003;48.002;7.788;2024-02-04T07:46:35;99639.94;;;5.80;100.00
5595;BME280;1003;48.002;7.788;2024-02-04T07:49:02;99643.44;;;5.90;100.00
5595;BME280;1003;48.002;7.788;2024-02-04T07:51:30;99646.75;;;5.89;100.00
5595;BME280;1003;48.002;7.788;2024-02-04T07:53:57;99651.75;;;5.90;100.00
5595;BME280;1003;48.002;7.788;2024-02-04T07:56:24;99656.88;;;5.95;100.00
5595;BME280;1003;48.002;7.788;2024-02-04T07:58:51;99676.94;;;6.02;100.00
5595;BME280;1003;48.002;7.788;2024-02-04T08:01:19;99677.84;;;6.08;100.00
5595;BME280;1003;48.002;7.788;2024-02-04T08:03:46;99683.84;;;6.19;100.00
5595;BME280;1003;48.002;7.788;2024-02-04T08:06:13;99690.63;;;6.26;100.00
5595;BME280;1003;48.002;7.788;2024-02-04T08:08:41;99696.53;;;6.31;100.00
5595;BME280;1003;48.002;7.788;2024-02-04T08:11:10;99707.50;;;6.41;100.00
5595;BME280;1003;48.002;7.788;2024-02-04T08:13:37;99714.25;;;6.48;100.00
5595;BME280;1003;48.002;7.788;2024-02-04T08:16:04;99735.16;;;6.54;100.00
5595;BME280;1003;48.002;7.788;2024-02-04T08:18:31;99761.94;;;6.63;100.00
5595;BME280;1003;48.002;7.788;2024-02-04T08:20:58;99775.31;;;6.67;100.00
5595;BME280;1003;48.002;7.788;2024-02-04T08:23:25;99803.66;;;6.69;100.00
5595;BME280;1003;48.002;7.788;2024-02-04T08:25:54;99832.09;;;6.77;100.00
5595;BME280;1003;48.002;7.788;2024-02-04T08:28:22;99857.22;;;6.88;100.00
5595;BME280;1003;48.002;7.788;2024-02-04T08:30:49;99884.13;;;7.02;100.00
5595;BME280;1003;48.002;7.788;2024-02-04T08:33:16;99904.34;;;7.16;100.00
5595;BME280;1003;48.002;7.788;2024-02-04T08:35:44;99938.56;;;7.20;100.00
5595;BME280;1003;48.002;7.788;2024-02-04T08:38:11;99964.47;;;7.24;100.00
5595;BME280;1003;48.002;7.788;2024-02-04T08:40:38;99985.41;;;7.30;100.00
5595;BME280;1003;48.002;7.788;2024-02-04T08:43:06;99995.66;;;7.46;100.00
5595;BME280;1003;48.002;7.788;2024-02-04T08:45:33;100010.09;;;7.63;100.00
5595;BME280;1003;48.002;7.788;2024-02-04T08:48:00;100035.25;;;7.73;100.00
5595;BME280;1003;48.002;7.788;2024-02-04T08:50:28;100045.50;;;7.88;100.00
5595;BME280;1003;48.002;7.788;2024-02-04T08:52:55;100070.69;;;7.99;100.00
5595;BME280;1003;48.002;7.788;2024-02-04T08:55:22;100104.28;;;8.13;100.00
5595;BME280;1003;48.002;7.788;2024-02-04T08:57:49;100129.44;;;8.21;100.00
5595;BME280;1003;48.002;7.788;2024-02-04T09:00:19;100160.31;;;8.21;100.00
5595;BME280;1003;48.002;7.788;2024-02-04T09:02:47;100185.38;;;8.23;100.00
5595;BME280;1003;48.002;7.788;2024-02-04T09:05:14;100203.72;;;8.22;100.00
5595;BME280;1003;48.002;7.788;2024-02-04T09:07:42;100243.06;;;8.27;100.00
5595;BME280;1003;48.002;7.788;2024-02-04T09:10:09;100259.03;;;8.34;100.00
5595;BME280;1003;48.002;7.788;2024-02-04T09:12:36;100295.13;;;8.44;100.00
5595;BME280;1003;48.002;7.788;2024-02-04T09:15:04;100306.16;;;8.53;100.00
5595;BME280;1003;48.002;7.788;2024-02-04T09:17:32;100309.63;;;8.61;100.00
5595;BME280;1003;48.002;7.788;2024-02-04T09:19:59;100324.72;;;8.66;100.00
5595;BME280;1003;48.002;7.788;2024-02-04T09:22:26;100344.09;;;8.75;100.00
5595;BME280;1003;48.002;7.788;2024-02-04T09:24:53;100350.94;;;8.86;100.00
5595;BME280;1003;48.002;7.788;2024-02-04T09:27:20;100356.22;;;9.03;100.00
5595;BME280;1003;48.002;7.788;2024-02-04T09:29:50;100369.72;;;9.11;100.00
5595;BME280;1003;48.002;7.788;2024-02-04T09:32:17;100372.31;;;9.17;100.00
5595;BME280;1003;48.002;7.788;2024-02-04T09:34:46;100381.63;;;9.25;100.00
5595;BME280;1003;48.002;7.788;2024-02-04T09:37:13;100383.38;;;9.30;100.00
5595;BME280;1003;48.002;7.788;2024-02-04T09:39:39;100395.88;;;9.26;100.00
5595;BME280;1003;48.002;7.788;2024-02-04T09:42:07;100395.63;;;9.10;100.00
5595;BME280;1003;48.002;7.788;2024-02-04T09:44:34;100417.38;;;9.11;100.00
5595;BME280;1003;48.002;7.788;2024-02-04T09:47:05;100405.94;;;9.29;100.00
5595;BME280;1003;48.002;7.788;2024-02-04T09:49:34;100411.09;;;9.36;100.00
5595;BME280;1003;48.002;7.788;2024-02-04T09:52:07;100407.72;;;9.36;100.00
5595;BME280;1003;48.002;7.788;2024-02-04T09:54:42;100416.00;;;9.30;100.00
5595;BME280;1003;48.002;7.788;2024-02-04T09:57:11;100433.69;;;9.39;100.00
5595;BME280;1003;48.002;7.788;2024-02-04T09:59:39;100435.47;;;9.46;100.00
5595;BME280;1003;48.002;7.788;2024-02-04T10:02:08;100451.47;;;9.53;100.00
5595;BME280;1003;48.002;7.788;2024-02-04T10:04:35;100469.91;;;9.55;100.00
5595;BME280;1003;48.002;7.788;2024-02-04T10:07:04;100468.31;;;9.60;100.00
5595;BME280;1003;48.002;7.788;2024-02-04T10:09:32;100464.91;;;9.57;100.00
5595;BME280;1003;48.002;7.788;2024-02-04T10:11:59;100475.00;;;9.61;100.00
5595;BME280;1003;48.002;7.788;2024-02-04T10:14:26;100473.22;;;9.53;100.00
5595;BME280;1003;48.002;7.788;2024-02-04T10:16:53;100473.16;;;9.50;100.00
5595;BME280;1003;48.002;7.788;2024-02-04T10:19:24;100479.88;;;9.51;100.00
5595;BME280;1003;48.002;7.788;2024-02-04T10:21:58;100499.19;;;9.56;100.00
5595;BME280;1003;48.002;7.788;2024-02-04T10:24:27;100521.63;;;9.45;100.00
5595;BME280;1003;48.002;7.788;2024-02-04T10:26:55;100542.53;;;9.44;100.00
5595;BME280;1003;48.002;7.788;2024-02-04T10:29:23;100537.34;;;9.35;100.00
5595;BME280;1003;48.002;7.788;2024-02-04T10:31:53;100545.09;;;9.48;100.00
5595;BME280;1003;48.002;7.788;2024-02-04T10:34:22;100538.59;;;9.62;100.00
5595;BME280;1003;48.002;7.788;2024-02-04T10:36:49;100536.16;;;9.66;100.00
5595;BME280;1003;48.002;7.788;2024-02-04T10:39:16;100526.34;;;9.80;100.00
5595;BME280;1003;48.002;7.788;2024-02-04T10:41:51;100532.16;;;9.79;100.00
5595;BME280;1003;48.002;7.788;2024-02-04T10:44:22;100525.44;;;9.77;100.00
5595;BME280;1003;48.002;7.788;2024-02-04T10:46:51;100528.03;;;9.80;100.00
5595;BME280;1003;48.002;7.788;2024-02-04T10:49:19;100519.66;;;9.81;100.00
5595;BME280;1003;48.002;7.788;2024-02-04T10:51:46;100516.47;;;9.92;100.00
5595;BME280;1003;48.002;7.788;2024-02-04T10:54:16;100509.16;;;10.08;100.00
5595;BME280;1003;48.002;7.788;2024-02-04T10:56:46;100515.94;;;10.16;100.00
5595;BME280;1003;48.002;7.788;2024-02-04T10:59:15;100522.84;;;10.28;100.00
5595;BME280;1003;48.002;7.788;2024-02-04T11:01:46;100533.94;;;10.44;100.00
5595;BME280;1003;48.002;7.788;2024-02-04T11:04:17;100529.69;;;10.40;100.00
5595;BME280;1003;48.002;7.788;2024-02-04T11:06:44;100524.59;;;10.35;100.00
5595;BME280;1003;48.002;7.788;2024-02-04T11:09:13;100512.94;;;10.42;100.00
5595;BME280;1003;48.002;7.788;2024-02-04T11:11:41;100519.72;;;10.46;100.00
5595;BME280;1003;48.002;7.788;2024-02-04T11:14:13;100509.69;;;10.49;100.00
5595;BME280;1003;48.002;7.788;2024-02-04T11:17:20;100525.75;;;10.60;100.00
5595;BME280;1003;48.002;7.788;2024-02-04T11:20:12;100512.28;;;10.55;100.00
5595;BME280;1003;48.002;7.788;2024-02-04T11:23:05;100528.34;;;10.66;100.00
5595;BME280;1003;48.002;7.788;2024-02-04T11:25:45;100528.38;;;10.71;100.00
5595;BME280;1003;48.002;7.788;2024-02-04T11:28:13;100522.50;;;10.70;100.00
5595;BME280;1003;48.002;7.788;2024-02-04T11:30:44;100521.81;;;10.84;100.00
5595;BME280;1003;48.002;7.788;2024-02-04T11:33:17;100527.69;;;10.84;100.00
5595;BME280;1003;48.002;7.788;2024-02-04T11:35:45;100545.34;;;10.92;100.00
5595;BME280;1003;48.002;7.788;2024-02-04T11:38:12;100551.44;;;11.09;100.00
5595;BME280;1003;48.002;7.788;2024-02-04T11:40:45;100554.16;;;11.32;100.00
5595;BME280;1003;48.002;7.788;2024-02-04T11:43:14;100533.31;;;11.48;100.00
5595;BME280;1003;48.002;7.788;2024-02-04T11:45:43;100540.16;;;11.66;100.00
5595;BME280;1003;48.002;7.788;2024-02-04T11:48:12;100538.63;;;11.83;100.00
5595;BME280;1003;48.002;7.788;2024-02-04T11:50:39;100538.59;;;11.79;100.00
5595;BME280;1003;48.002;7.788;2024-02-04T11:53:08;100547.91;;;11.92;100.00
5595;BME280;1003;48.002;7.788;2024-02-04T11:55:38;100542.94;;;12.03;100.00
5595;BME280;1003;48.002;7.788;2024-02-04T11:58:06;100600.94;;;12.07;100.00
5595;BME280;1003;48.002;7.788;2024-02-04T12:00:33;100588.38;;;12.12;100.00
5595;BME280;1003;48.002;7.788;2024-02-04T12:03:02;100577.44;;;12.07;100.00
5595;BME280;1003;48.002;7.788;2024-02-04T12:05:32;100593.41;;;12.14;100.00
5595;BME280;1003;48.002;7.788;2024-02-04T12:08:02;100609.25;;;11.93;100.00
5595;BME280;1003;48.002;7.788;2024-02-04T12:10:31;100602.50;;;11.92;100.00
5595;BME280;1003;48.002;7.788;2024-02-04T12:12:59;100614.19;;;11.82;100.00
5595;BME280;1003;48.002;7.788;2024-02-04T12:15:29;100620.88;;;11.78;100.00
5595;BME280;1003;48.002;7.788;2024-02-04T12:18:06;100630.88;;;11.72;100.00
5595;BME280;1003;48.002;7.788;2024-02-04T12:20:33;100638.53;;;11.81;100.00
5595;BME280;1003;48.002;7.788;2024-02-04T12:23:03;100639.31;;;11.77;100.00
5595;BME280;1003;48.002;7.788;2024-02-04T12:25:30;100623.34;;;11.75;100.00
5595;BME280;1003;48.002;7.788;2024-02-04T12:27:58;100638.41;;;11.68;100.00
5595;BME280;1003;48.002;7.788;2024-02-04T12:30:26;100641.72;;;11.64;100.00
5595;BME280;1003;48.002;7.788;2024-02-04T12:32:57;100624.94;;;11.67;100.00
5595;BME280;1003;48.002;7.788;2024-02-04T12:35:26;100628.53;;;11.91;100.00
5595;BME280;1003;48.002;7.788;2024-02-04T12:37:54;100628.59;;;12.00;100.00
5595;BME280;1003;48.002;7.788;2024-02-04T12:40:22;100625.34;;;12.12;100.00
5595;BME280;1003;48.002;7.788;2024-02-04T12:42:54;100618.59;;;12.11;100.00
5595;BME280;1003;48.002;7.788;2024-02-04T12:45:21;100622.75;;;12.01;100.00
5595;BME280;1003;48.002;7.788;2024-02-04T12:47:50;100629.59;;;12.17;100.00
5595;BME280;1003;48.002;7.788;2024-02-04T12:50:18;100626.25;;;12.23;100.00
5595;BME280;1003;48.002;7.788;2024-02-04T12:52:47;100630.38;;;12.13;100.00
5595;BME280;1003;48.002;7.788;2024-02-04T12:55:23;100632.06;;;12.14;100.00
5595;BME280;1003;48.002;7.788;2024-02-04T12:58:02;100642.94;;;12.07;100.00
5595;BME280;1003;48.002;7.788;2024-02-04T13:00:30;100643.72;;;11.97;100.00
5595;BME280;1003;48.002;7.788;2024-02-04T13:02:58;100637.00;;;11.97;100.00
5595;BME280;1003;48.002;7.788;2024-02-04T13:05:26;100636.16;;;12.00;100.00
5595;BME280;1003;48.002;7.788;2024-02-04T13:07:59;100647.06;;;11.97;100.00
5595;BME280;1003;48.002;7.788;2024-02-04T13:10:28;100650.38;;;11.93;100.00
5595;BME280;1003;48.002;7.788;2024-02-04T13:13:01;100646.97;;;11.85;100.00
5595;BME280;1003;48.002;7.788;2024-02-04T13:15:29;100642.75;;;11.82;100.00
5595;BME280;1003;48.002;7.788;2024-02-04T13:17:56;100652.69;;;11.72;100.00
5595;BME280;1003;48.002;7.788;2024-02-04T13:20:23;100651.81;;;11.67;100.00